Time;durP1;ratioP1;P1;durP2;ratioP2;P2;SDS_P1;SDS_P2;PMS_P1;PMS_P2;Temp;Humidity;BMP_temperature;BMP_pressure;BME280_temperature;BME280_humidity;BME280_pressure;Samples;Min_cycle;Max_cycle;Signal;HPM_P1;HPM_P2
2022/11/26 00:02:15;;;;;;;15.27;4.78;;;4.90;99.90;;;;;;4949997;28;20034;-85
2022/11/26 00:04:41;;;;;;;14.77;4.00;;;5.70;99.90;;;;;;4980021;28;20042;-85
2022/11/26 00:07:10;;;;;;;13.63;4.50;;;4.80;99.90;;;;;;4979116;28;20122;-85
2022/11/26 00:09:36;;;;;;;13.50;4.68;;;4.90;99.90;;;;;;4972289;28;20278;-85
2022/11/26 00:12:12;;;;;;;13.75;4.30;;;4.90;99.90;;;;;;4965369;28;20049;-85
2022/11/26 00:14:38;;;;;;;17.75;4.43;;;4.90;99.90;;;;;;4990444;28;20038;-85
2022/11/26 00:17:04;;;;;;;14.65;4.60;;;4.80;99.90;;;;;;4972350;28;20043;-85
2022/11/26 00:19:29;;;;;;;16.37;4.70;;;4.90;99.90;;;;;;4990642;28;20104;-85
2022/11/26 00:21:55;;;;;;;13.27;4.33;;;4.90;99.90;;;;;;4967471;28;20278;-85
2022/11/26 00:24:28;;;;;;;19.75;5.00;;;5.00;99.90;;;;;;4957455;28;20089;-86
2022/11/26 00:26:56;;;;;;;15.10;5.03;;;4.90;99.90;;;;;;4974282;28;20050;-85
2022/11/26 00:29:22;;;;;;;16.30;4.88;;;4.90;99.90;;;;;;4983098;28;20066;-86
2022/11/26 00:31:48;;;;;;;20.48;4.90;;;4.90;99.90;;;;;;4962626;28;20460;-85
2022/11/26 00:34:13;;;;;;;16.17;4.80;;;4.90;99.90;;;;;;4967118;28;20038;-85
2022/11/26 00:36:41;;;;;;;13.33;5.53;;;4.80;99.90;;;;;;4971470;28;20286;-85
2022/11/26 00:39:20;;;;;;;19.92;5.05;;;4.80;99.90;;;;;;4972046;28;20034;-84
2022/11/26 00:41:49;;;;;;;15.98;5.28;;;4.80;99.90;;;;;;4967193;28;20046;-85
2022/11/26 00:44:24;;;;;;;20.15;4.75;;;5.00;99.90;;;;;;4959340;28;20145;-85
2022/11/26 00:46:50;;;;;;;16.88;4.75;;;4.80;99.90;;;;;;4967268;28;20184;-84
2022/11/26 00:49:17;;;;;;;15.02;4.97;;;4.80;99.90;;;;;;4983379;28;20395;-85
2022/11/26 00:51:44;;;;;;;19.90;5.03;;;5.60;99.90;;;;;;4984891;28;20038;-85
2022/11/26 00:54:13;;;;;;;17.60;4.63;;;4.80;99.90;;;;;;4957742;28;20034;-85
2022/11/26 00:56:39;;;;;;;22.83;5.43;;;4.80;99.90;;;;;;4989596;28;20050;-85
2022/11/26 00:59:05;;;;;;;19.08;4.97;;;4.80;99.90;;;;;;4990331;28;20039;-85
2022/11/26 01:01:31;;;;;;;15.80;4.82;;;4.70;99.90;;;;;;4970927;28;20045;-85
2022/11/26 01:03:58;;;;;;;16.65;5.00;;;4.70;99.90;;;;;;4957605;28;20075;-86
2022/11/26 01:06:39;;;;;;;16.95;4.90;;;5.00;99.90;;;;;;4971153;28;20057;-85
2022/11/26 01:09:06;;;;;;;14.77;5.53;;;4.70;99.90;;;;;;4966709;28;20137;-86
2022/11/26 01:11:32;;;;;;;13.75;4.88;;;4.60;99.90;;;;;;4966439;28;20120;-86
2022/11/26 01:13:58;;;;;;;16.08;5.78;;;4.60;99.90;;;;;;4960037;28;20126;-86
2022/11/26 01:16:30;;;;;;;17.77;5.65;;;4.60;99.90;;;;;;4963936;28;20050;-85
2022/11/26 01:18:58;;;;;;;15.90;5.68;;;4.60;99.90;;;;;;4966782;28;20039;-84
2022/11/26 01:21:26;;;;;;;18.08;5.43;;;4.60;99.90;;;;;;4959014;28;20100;-84
2022/11/26 01:23:52;;;;;;;22.52;5.78;;;5.00;99.90;;;;;;4964175;28;20457;-85
2022/11/26 01:26:24;;;;;;;25.75;5.75;;;4.50;99.90;;;;;;4982401;28;20034;-84
2022/11/26 01:28:50;;;;;;;17.70;5.55;;;4.50;99.90;;;;;;4957021;28;20070;-85
2022/11/26 01:31:27;;;;;;;20.27;5.93;;;4.50;99.90;;;;;;4989778;28;20042;-84
2022/11/26 01:33:54;;;;;;;19.20;5.60;;;4.50;99.90;;;;;;4977574;28;20117;-85
2022/11/26 01:36:22;;;;;;;;;;;4.50;99.90;;;;;;4985324;28;20140;-84
2022/11/26 01:38:50;;;;;;;19.55;5.60;;;4.50;99.90;;;;;;4982162;28;20004;-85
2022/11/26 01:41:27;;;;;;;14.40;5.57;;;4.60;99.90;;;;;;4977629;28;20096;-86
2022/11/26 01:43:56;;;;;;;17.17;4.65;;;4.50;99.90;;;;;;4972580;28;20101;-85
2022/11/26 01:46:22;;;;;;;17.73;6.07;;;4.50;99.90;;;;;;4968599;28;20038;-86
2022/11/26 01:48:49;;;;;;;14.05;5.45;;;4.70;99.90;;;;;;4986429;28;20043;-86
2022/11/26 01:51:23;;;;;;;18.13;5.72;;;4.50;99.90;;;;;;4989709;28;20065;-85
2022/11/26 01:53:57;;;;;;;16.30;5.93;;;4.50;99.90;;;;;;4982649;28;20042;-86
2022/11/26 01:56:37;;;;;;;18.63;6.47;;;4.40;99.90;;;;;;4965752;28;20089;-86
2022/11/26 01:59:13;;;;;;;20.55;6.63;;;4.40;99.90;;;;;;4970805;28;20038;-86
2022/11/26 02:01:40;;;;;;;21.35;6.10;;;4.50;99.90;;;;;;4963416;28;20494;-86
2022/11/26 02:04:23;;;;;;;21.10;6.15;;;4.40;99.90;;;;;;4988680;28;20038;-86
2022/11/26 02:06:51;;;;;;;25.55;6.43;;;4.40;99.90;;;;;;4967461;28;20046;-84
2022/11/26 02:09:18;;;;;;;18.48;6.50;;;4.40;99.90;;;;;;4979380;28;20042;-86
2022/11/26 02:11:45;;;;;;;20.17;5.93;;;4.40;99.90;;;;;;4974156;28;20094;-84
2022/11/26 02:14:19;;;;;;;18.63;6.35;;;4.40;99.90;;;;;;4968114;28;20521;-85
2022/11/26 02:17:33;;;;;;;22.80;6.53;;;4.40;99.90;;;;;;4986032;28;20073;-85
2022/11/26 02:20:28;;;;;;;20.45;5.68;;;4.40;99.90;;;;;;4943024;28;20496;-85
2022/11/26 02:23:25;;;;;;;22.98;5.97;;;4.30;99.90;;;;;;4976373;28;20089;-85
2022/11/26 02:26:16;;;;;;;19.85;6.40;;;4.30;99.90;;;;;;4988364;28;20046;-85
2022/11/26 02:28:58;;;;;;;19.67;6.35;;;4.30;99.90;;;;;;4962480;28;20034;-85
2022/11/26 02:31:54;;;;;;;20.83;6.43;;;4.30;99.90;;;;;;4979402;28;20042;-85
2022/11/26 02:34:42;;;;;;;26.90;6.90;;;4.30;99.90;;;;;;4972345;28;20480;-85
2022/11/26 02:37:17;;;;;;;24.95;7.00;;;4.30;99.90;;;;;;4982805;28;20085;-84
2022/11/26 02:39:43;;;;;;;15.70;5.97;;;5.30;99.90;;;;;;4978874;28;20065;-85
2022/11/26 02:42:26;;;;;;;17.67;6.10;;;4.40;99.90;;;;;;4967998;28;20057;-85
2022/11/26 02:44:54;;;;;;;18.83;6.35;;;4.30;99.90;;;;;;4957947;28;20046;-85
2022/11/26 02:47:22;;;;;;;23.58;7.00;;;4.40;99.90;;;;;;4983846;28;20070;-85
2022/11/26 02:49:50;;;;;;;31.73;8.32;;;4.30;99.90;;;;;;4962770;28;20093;-84
2022/11/26 02:52:18;;;;;;;21.35;6.05;;;4.70;99.90;;;;;;4962852;28;20101;-85
2022/11/26 02:54:44;;;;;;;24.70;7.30;;;4.40;99.90;;;;;;4969720;28;20042;-85
2022/11/26 02:57:14;;;;;;;20.90;6.60;;;4.50;99.90;;;;;;4967406;28;20108;-85
2022/11/26 02:59:40;;;;;;;23.55;6.57;;;4.40;99.90;;;;;;4988235;28;20146;-85
2022/11/26 03:02:32;;;;;;;18.50;5.63;;;4.40;99.90;;;;;;4970355;28;20068;-85
2022/11/26 03:05:01;;;;;;;19.52;6.95;;;4.30;99.90;;;;;;4984043;28;20117;-85
2022/11/26 03:07:29;;;;;;;17.17;6.20;;;4.30;99.90;;;;;;4962245;28;20463;-85
2022/11/26 03:09:57;;;;;;;17.30;6.20;;;4.50;99.90;;;;;;4966176;28;20089;-85
2022/11/26 03:12:24;;;;;;;17.88;6.78;;;4.50;99.90;;;;;;4989472;28;20046;-85
2022/11/26 03:14:50;;;;;;;;;;;4.20;99.90;;;;;;4968539;28;20047;-85
2022/11/26 03:17:16;;;;;;;17.83;6.90;;;5.20;99.90;;;;;;4978297;28;20397;-85
2022/11/26 03:19:42;;;;;;;26.98;7.00;;;4.20;99.90;;;;;;4991650;28;20035;-85
2022/11/26 03:22:08;;;;;;;20.10;6.78;;;5.70;99.90;;;;;;4980120;28;20069;-85
2022/11/26 03:24:34;;;;;;;17.38;6.05;;;4.20;99.90;;;;;;4965997;28;20045;-85
2022/11/26 03:26:59;;;;;;;17.10;6.40;;;4.10;99.90;;;;;;4961046;28;20034;-86
2022/11/26 03:29:25;;;;;;;18.90;6.50;;;4.10;99.90;;;;;;4968190;28;20043;-85
2022/11/26 03:31:51;;;;;;;21.33;6.45;;;4.10;99.90;;;;;;4960892;28;20632;-86
2022/11/26 03:34:17;;;;;;;20.45;7.13;;;4.10;99.90;;;;;;4989326;28;20049;-86
2022/11/26 03:36:42;;;;;;;23.17;6.82;;;4.00;99.90;;;;;;4974753;28;20038;-86
2022/11/26 03:39:08;;;;;;;19.27;6.38;;;5.10;99.90;;;;;;4963316;28;20041;-86
2022/11/26 03:41:34;;;;;;;22.67;7.43;;;5.00;99.90;;;;;;4970758;28;20038;-86
2022/11/26 03:43:59;;;;;;;32.97;7.05;;;4.00;99.90;;;;;;4967619;28;20285;-85
2022/11/26 03:46:25;;;;;;;20.33;6.67;;;4.90;99.90;;;;;;4968252;28;20078;-86
2022/11/26 03:48:51;;;;;;;23.20;7.20;;;3.90;99.90;;;;;;4958386;28;20034;-85
2022/11/26 03:51:16;;;;;;;24.33;7.20;;;4.40;99.90;;;;;;4984386;28;20069;-85
2022/11/26 03:53:42;;;;;;;21.93;6.63;;;4.60;99.90;;;;;;4967413;28;20049;-86
2022/11/26 03:56:08;;;;;;;20.93;6.67;;;4.00;99.90;;;;;;4970269;28;20297;-85
2022/11/26 03:58:34;;;;;;;19.83;6.67;;;3.90;99.90;;;;;;4965444;28;20038;-86
2022/11/26 04:01:00;;;;;;;22.75;7.15;;;3.90;99.90;;;;;;4960615;28;20680;-86
2022/11/26 04:03:25;;;;;;;19.70;6.25;;;3.90;99.90;;;;;;4988764;28;20034;-85
2022/11/26 04:05:51;;;;;;;22.05;7.38;;;3.90;99.90;;;;;;4983551;28;20053;-85
2022/11/26 04:08:17;;;;;;;23.92;8.18;;;4.60;99.90;;;;;;4991226;28;20042;-85
2022/11/26 04:10:42;;;;;;;18.83;6.73;;;3.90;99.90;;;;;;4967065;28;20379;-86
2022/11/26 04:13:08;;;;;;;26.83;7.63;;;4.90;99.90;;;;;;4965447;28;20331;-85
2022/11/26 04:15:34;;;;;;;23.03;6.90;;;3.90;99.90;;;;;;4990623;28;20421;-85
2022/11/26 04:18:00;;;;;;;18.50;7.25;;;3.90;99.90;;;;;;4956664;28;20074;-86
2022/11/26 04:20:25;;;;;;;20.27;7.37;;;3.90;99.90;;;;;;4973479;28;20045;-85
2022/11/26 04:22:51;;;;;;;23.83;7.67;;;3.90;99.90;;;;;;4971477;28;20278;-85
2022/11/26 04:25:17;;;;;;;20.00;7.70;;;3.90;99.90;;;;;;4967577;28;20495;-85
2022/11/26 04:27:42;;;;;;;22.65;8.70;;;3.90;99.90;;;;;;4966975;28;20161;-86
2022/11/26 04:30:09;;;;;;;33.73;8.43;;;3.80;99.90;;;;;;4967244;28;20034;-85
2022/11/26 04:32:35;;;;;;;21.63;7.63;;;3.90;99.90;;;;;;4990641;28;20277;-85
2022/11/26 04:35:01;;;;;;;28.33;7.68;;;4.20;99.90;;;;;;4966964;28;20128;-85
2022/11/26 04:37:27;;;;;;;30.52;8.57;;;4.80;99.90;;;;;;4986210;28;20062;-85
2022/11/26 04:39:52;;;;;;;27.63;7.97;;;3.90;99.90;;;;;;4961555;28;20046;-86
2022/11/26 04:42:18;;;;;;;27.70;8.00;;;4.80;99.90;;;;;;4963101;28;20320;-85
2022/11/26 04:44:44;;;;;;;26.33;8.57;;;3.90;99.90;;;;;;4958399;28;20038;-85
2022/11/26 04:47:09;;;;;;;27.23;7.90;;;3.80;99.90;;;;;;4946641;28;20483;-85
2022/11/26 04:49:35;;;;;;;27.47;8.33;;;4.90;99.90;;;;;;4951140;28;20039;-85
2022/11/26 04:52:01;;;;;;;23.30;7.35;;;3.70;99.90;;;;;;4961591;28;20034;-85
2022/11/26 04:54:26;;;;;;;27.00;8.87;;;3.80;99.90;;;;;;4961917;28;20070;-86
2022/11/26 04:56:52;;;;;;;36.70;9.57;;;3.80;99.90;;;;;;4964088;28;20046;-85
2022/11/26 04:59:18;;;;;;;22.50;9.07;;;3.80;99.90;;;;;;4962222;28;20317;-85
2022/11/26 05:01:43;;;;;;;22.13;8.37;;;5.30;99.90;;;;;;4990262;28;20034;-85
2022/11/26 05:04:09;;;;;;;28.25;9.57;;;3.70;99.90;;;;;;4964474;28;20038;-85
2022/11/26 05:06:35;;;;;;;22.53;8.97;;;3.70;99.90;;;;;;4974351;28;20045;-86
2022/11/26 05:09:00;;;;;;;29.55;9.52;;;3.70;99.90;;;;;;4948074;28;20053;-86
2022/11/26 05:11:26;;;;;;;28.43;9.23;;;3.70;99.90;;;;;;4991258;28;20482;-84
2022/11/26 05:13:52;;;;;;;24.77;7.87;;;3.90;99.90;;;;;;4966256;28;20306;-85
2022/11/26 05:16:17;;;;;;;21.83;8.53;;;3.70;99.90;;;;;;4968937;28;20038;-85
2022/11/26 05:18:43;;;;;;;28.20;9.40;;;3.70;99.90;;;;;;4959741;28;20341;-86
2022/11/26 05:21:08;;;;;;;33.63;10.03;;;3.80;99.90;;;;;;4961721;28;20049;-85
2022/11/26 05:23:34;;;;;;;27.10;9.40;;;3.70;99.90;;;;;;4955719;28;20038;-85
2022/11/26 05:26:00;;;;;;;24.00;9.65;;;3.70;99.90;;;;;;4989349;28;20037;-84
2022/11/26 05:28:26;;;;;;;33.97;10.37;;;3.70;99.90;;;;;;4959341;28;20047;-86
2022/11/26 05:30:59;;;;;;;31.27;9.23;;;5.00;99.90;;;;;;4945125;28;20046;-85
2022/11/26 05:33:26;;;;;;;24.42;8.52;;;3.70;99.90;;;;;;4959170;28;20043;-86
2022/11/26 05:35:52;;;;;;;26.95;8.82;;;3.70;99.90;;;;;;4961789;28;20084;-86
2022/11/26 05:38:17;;;;;;;31.40;10.13;;;3.70;99.90;;;;;;4975035;28;20433;-86
2022/11/26 05:40:43;;;;;;;26.07;10.13;;;3.70;99.90;;;;;;4952084;28;20793;-86
2022/11/26 05:43:09;;;;;;;22.20;10.15;;;4.20;99.90;;;;;;4958143;28;20273;-86
2022/11/26 05:45:34;;;;;;;23.85;9.40;;;3.80;99.90;;;;;;4961310;28;20544;-86
2022/11/26 05:48:00;;;;;;;31.17;10.53;;;3.80;99.90;;;;;;4956659;28;20034;-86
2022/11/26 05:50:26;;;;;;;25.83;10.27;;;3.80;99.90;;;;;;4963071;28;20285;-86
2022/11/26 05:52:51;;;;;;;26.25;10.13;;;3.80;99.90;;;;;;4972794;28;20085;-85
2022/11/26 05:55:18;;;;;;;30.73;11.43;;;3.80;99.90;;;;;;4967889;28;20041;-85
2022/11/26 05:57:44;;;;;;;27.77;10.05;;;4.10;99.90;;;;;;4942375;28;20388;-86
2022/11/26 06:00:10;;;;;;;27.38;9.10;;;3.80;99.90;;;;;;4970037;28;20395;-86
2022/11/26 06:02:37;;;;;;;32.40;10.57;;;3.80;99.90;;;;;;4968272;28;20497;-85
2022/11/26 06:05:03;;;;;;;23.27;10.13;;;3.70;99.90;;;;;;4953696;28;20049;-85
2022/11/26 06:07:29;;;;;;;27.63;10.57;;;3.80;99.90;;;;;;4958672;28;20034;-85
2022/11/26 06:09:55;;;;;;;28.33;10.35;;;3.50;99.90;;;;;;4981350;28;20117;-86
2022/11/26 06:12:21;;;;;;;32.10;9.50;;;3.70;99.90;;;;;;4981730;28;20042;-85
2022/11/26 06:14:46;;;;;;;28.40;10.97;;;3.70;99.90;;;;;;4988838;28;20133;-85
2022/11/26 06:17:12;;;;;;;25.37;9.50;;;3.70;99.90;;;;;;4962960;28;20805;-85
2022/11/26 06:19:38;;;;;;;25.17;11.02;;;3.80;99.90;;;;;;4970561;28;20117;-84
2022/11/26 06:22:04;;;;;;;32.70;11.60;;;3.80;99.90;;;;;;4983881;28;20031;-84
2022/11/26 06:24:32;;;;;;;27.73;11.05;;;3.80;99.90;;;;;;4981960;28;20093;-84
2022/11/26 06:26:58;;;;;;;26.87;10.67;;;3.80;99.90;;;;;;4963030;28;20436;-84
2022/11/26 06:29:24;;;;;;;29.50;10.55;;;3.80;99.90;;;;;;4962873;28;20093;-84
2022/11/26 06:31:49;;;;;;;30.75;11.57;;;3.80;99.90;;;;;;4976916;28;20498;-85
2022/11/26 06:34:15;;;;;;;22.42;9.93;;;4.50;99.90;;;;;;4978721;28;20053;-85
2022/11/26 06:36:41;;;;;;;25.88;10.20;;;3.80;99.90;;;;;;4960725;28;20117;-84
2022/11/26 06:39:09;;;;;;;26.10;9.73;;;3.70;99.90;;;;;;4974248;28;20069;-84
2022/11/26 06:41:34;;;;;;;24.55;8.57;;;3.70;99.90;;;;;;4986686;28;20495;-84
2022/11/26 06:44:00;;;;;;;24.90;9.07;;;3.70;99.90;;;;;;4975986;28;20038;-85
2022/11/26 06:46:26;;;;;;;22.35;7.80;;;3.70;99.90;;;;;;4969621;28;20034;-85
2022/11/26 06:48:52;;;;;;;29.17;10.48;;;3.70;99.90;;;;;;4969491;28;20041;-82
2022/11/26 06:51:20;;;;;;;33.03;11.53;;;3.70;99.90;;;;;;4971509;28;20046;-84
2022/11/26 06:53:49;;;;;;;27.70;10.55;;;3.60;99.90;;;;;;4992176;28;20341;-83
2022/11/26 06:56:16;;;;;;;38.85;11.52;;;3.70;99.90;;;;;;4982168;28;20045;-85
2022/11/26 06:58:43;;;;;;;26.17;10.70;;;3.70;99.90;;;;;;4960419;28;20093;-82
2022/11/26 07:01:18;;;;;;;30.33;11.50;;;3.70;99.90;;;;;;4980650;28;20085;-82
2022/11/26 07:03:45;;;;;;;32.90;11.38;;;4.30;99.90;;;;;;4964743;28;20073;-83
2022/11/26 07:06:25;;;;;;;32.95;11.50;;;3.70;99.90;;;;;;4977908;28;20034;-83
2022/11/26 07:08:53;;;;;;;33.38;11.68;;;4.50;99.90;;;;;;4977698;28;20046;-83
2022/11/26 07:11:20;;;;;;;27.52;11.43;;;4.30;99.90;;;;;;4979698;28;20046;-82
2022/11/26 07:13:46;;;;;;;28.55;9.75;;;3.70;99.90;;;;;;4975100;28;20042;-82
2022/11/26 07:16:11;;;;;;;28.25;10.15;;;4.60;99.90;;;;;;4984582;28;20121;-82
2022/11/26 07:18:37;;;;;;;34.07;10.23;;;3.70;99.90;;;;;;4978618;28;20137;-82
2022/11/26 07:21:05;;;;;;;27.60;10.80;;;3.70;99.90;;;;;;4963885;28;20035;-83
2022/11/26 07:23:31;;;;;;;30.15;11.18;;;3.70;99.90;;;;;;4973604;28;20499;-82
2022/11/26 07:26:01;;;;;;;44.03;14.10;;;3.70;99.90;;;;;;4985271;28;20134;-83
2022/11/26 07:28:27;;;;;;;23.73;10.70;;;3.70;99.90;;;;;;4985850;28;20057;-82
2022/11/26 07:30:53;;;;;;;31.52;12.48;;;3.80;99.90;;;;;;4979653;28;20134;-83
2022/11/26 07:33:19;;;;;;;34.70;12.50;;;3.70;99.90;;;;;;4965472;28;20522;-82
2022/11/26 07:35:45;;;;;;;34.93;11.37;;;3.80;99.90;;;;;;4984043;28;20050;-83
2022/11/26 07:38:10;;;;;;;23.98;10.85;;;4.60;99.90;;;;;;4983891;28;20281;-82
2022/11/26 07:40:36;;;;;;;31.27;11.13;;;4.00;99.90;;;;;;4988057;28;20064;-82
2022/11/26 07:43:02;;;;;;;28.97;10.63;;;3.90;99.90;;;;;;4987231;28;20172;-83
2022/11/26 07:45:27;;;;;;;32.03;11.97;;;3.90;99.90;;;;;;4977183;28;20286;-84
2022/11/26 07:47:53;;;;;;;28.47;11.20;;;3.90;99.90;;;;;;4979456;28;20125;-82
2022/11/26 07:50:19;;;;;;;31.80;12.47;;;3.90;99.90;;;;;;4966298;28;20294;-83
2022/11/26 07:52:44;;;;;;;30.70;12.10;;;4.60;99.90;;;;;;4961986;28;20050;-82
2022/11/26 07:55:10;;;;;;;33.57;12.07;;;3.90;99.90;;;;;;4983075;28;20851;-82
2022/11/26 07:57:36;;;;;;;32.00;12.45;;;3.90;99.90;;;;;;4956300;28;20109;-83
2022/11/26 08:00:02;;;;;;;33.57;12.73;;;4.00;99.90;;;;;;4942502;28;20487;-83
2022/11/26 08:02:27;;;;;;;36.05;12.52;;;4.10;99.90;;;;;;4965555;28;20762;-82
2022/11/26 08:04:53;;;;;;;25.73;9.83;;;4.10;99.90;;;;;;4970039;28;20055;-82
2022/11/26 08:07:19;;;;;;;33.40;12.87;;;4.20;99.90;;;;;;4978423;28;20034;-82
2022/11/26 08:09:45;;;;;;;30.97;11.67;;;4.30;99.90;;;;;;4988245;28;20381;-82
2022/11/26 08:12:11;;;;;;;36.83;13.23;;;4.40;99.90;;;;;;4990093;28;20292;-82
2022/11/26 08:14:36;;;;;;;40.97;13.13;;;4.50;99.90;;;;;;4976517;28;20042;-82
2022/11/26 08:17:02;;;;;;;31.97;13.07;;;5.10;99.90;;;;;;4987932;28;20108;-82
2022/11/26 08:19:28;;;;;;;30.80;12.40;;;4.90;99.90;;;;;;4990574;28;20437;-83
2022/11/26 08:21:53;;;;;;;39.23;14.77;;;5.20;99.90;;;;;;4974411;28;20034;-83
2022/11/26 08:24:19;;;;;;;28.47;13.10;;;5.40;99.90;;;;;;4983879;28;20089;-84
2022/11/26 08:26:45;;;;;;;33.78;12.10;;;5.70;99.90;;;;;;4961274;28;20293;-83
2022/11/26 08:29:12;;;;;;;24.83;11.10;;;5.80;99.90;;;;;;4989976;28;20050;-83
2022/11/26 08:31:40;;;;;;;26.42;10.88;;;5.90;99.90;;;;;;4949578;28;20042;-83
2022/11/26 08:34:06;;;;;;;20.98;9.48;;;6.00;99.90;;;;;;4977353;28;20093;-84
2022/11/26 08:36:31;;;;;;;19.33;9.32;;;6.10;99.90;;;;;;4967979;28;20038;-83
2022/11/26 08:38:59;;;;;;;20.30;8.68;;;6.20;99.90;;;;;;4972404;28;20502;-84
2022/11/26 08:41:25;;;;;;;20.83;9.88;;;6.40;99.90;;;;;;4990185;28;20046;-83
2022/11/26 08:43:51;;;;;;;19.70;8.68;;;6.60;99.90;;;;;;4988067;28;20517;-83
2022/11/26 08:46:16;;;;;;;15.63;7.63;;;6.90;99.90;;;;;;4960270;28;20078;-83
2022/11/26 08:48:44;;;;;;;18.37;8.20;;;7.20;99.90;;;;;;4945130;28;20129;-84
2022/11/26 08:51:11;;;;;;;23.17;7.50;;;7.50;99.90;;;;;;4992814;28;20057;-83
2022/11/26 08:53:38;;;;;;;16.63;7.15;;;7.80;99.90;;;;;;4967603;28;20050;-83
2022/11/26 08:56:08;;;;;;;15.13;7.10;;;7.90;99.90;;;;;;4993179;28;20046;-83
2022/11/26 08:58:39;;;;;;;15.10;6.63;;;8.00;99.90;;;;;;4986019;28;20047;-84
2022/11/26 09:01:09;;;;;;;13.05;6.45;;;8.30;99.90;;;;;;4966230;28;20495;-82
2022/11/26 09:03:35;;;;;;;19.35;6.72;;;8.00;99.90;;;;;;4969687;28;20053;-84
2022/11/26 09:06:02;;;;;;;15.43;7.25;;;8.10;99.90;;;;;;4992908;28;20045;-83
2022/11/26 09:08:28;;;;;;;17.25;6.28;;;7.90;99.90;;;;;;4993573;28;20534;-83
2022/11/26 09:10:54;;;;;;;16.63;6.37;;;7.70;99.90;;;;;;4990468;28;20042;-83
2022/11/26 09:13:20;;;;;;;12.68;6.22;;;7.70;99.90;;;;;;4976924;28;20372;-83
2022/11/26 09:15:47;;;;;;;16.17;6.00;;;7.80;99.90;;;;;;4983833;28;20188;-83
2022/11/26 09:18:13;;;;;;;17.70;6.10;;;8.50;99.90;;;;;;4993103;28;20482;-83
2022/11/26 09:20:38;;;;;;;18.37;6.53;;;8.20;99.90;;;;;;4976959;28;20039;-83
2022/11/26 09:23:04;;;;;;;11.60;5.93;;;8.40;99.90;;;;;;4946936;28;20043;-83
2022/11/26 09:25:30;;;;;;;16.15;5.95;;;8.40;99.90;;;;;;4955962;28;20118;-83
2022/11/26 09:27:55;;;;;;;17.77;5.77;;;8.50;99.90;;;;;;4975115;28;20433;-83
2022/11/26 09:30:21;;;;;;;12.87;5.67;;;8.70;99.90;;;;;;4977377;28;20517;-83
2022/11/26 09:32:47;;;;;;;13.77;5.70;;;8.90;99.90;;;;;;4976939;28;20290;-83
2022/11/26 09:35:15;;;;;;;17.98;6.28;;;8.80;99.90;;;;;;4976652;28;20053;-83
2022/11/26 09:37:41;;;;;;;18.58;6.53;;;8.60;99.90;;;;;;4989031;28;20041;-84
2022/11/26 09:40:15;;;;;;;20.50;6.45;;;8.80;99.90;;;;;;4973498;28;20117;-83
2022/11/26 09:43:26;;;;;;;12.95;5.90;;;8.80;99.90;;;;;;4973686;28;20078;-84
2022/11/26 09:45:58;;;;;;;12.57;5.63;;;9.00;99.90;;;;;;4969436;28;20047;-84
2022/11/26 09:48:27;;;;;;;19.25;6.53;;;9.20;99.90;;;;;;4993139;28;20084;-84
2022/11/26 09:51:03;;;;;;;16.00;5.80;;;9.30;99.90;;;;;;4992890;28;20121;-84
2022/11/26 09:53:36;;;;;;;12.13;5.28;;;9.50;99.90;;;;;;4983774;28;20073;-84
2022/11/26 09:56:02;;;;;;;20.13;6.63;;;9.60;99.90;;;;;;4976206;28;20081;-84
2022/11/26 09:58:32;;;;;;;16.63;5.97;;;9.70;99.90;;;;;;4992027;28;20050;-84
2022/11/26 10:00:59;;;;;;;13.63;5.38;;;9.90;99.90;;;;;;4974084;28;20113;-84
2022/11/26 10:03:35;;;;;;;17.20;6.25;;;10.10;99.90;;;;;;4992938;28;20042;-84
2022/11/26 10:06:38;;;;;;;16.05;5.72;;;10.30;99.90;;;;;;4992472;28;20173;-84
2022/11/26 10:09:07;;;;;;;13.10;5.47;;;10.40;99.90;;;;;;4992820;28;20447;-83
2022/11/26 10:12:15;;;;;;;19.67;6.00;;;10.40;99.90;;;;;;4976817;28;20041;-84
2022/11/26 10:14:47;;;;;;;;;;;10.20;99.90;;;;;;4983353;28;20039;-83
2022/11/26 10:17:22;;;;;;;12.50;5.10;;;10.00;99.90;;;;;;4980677;28;20362;-84
2022/11/26 10:20:18;;;;;;;21.25;5.75;;;9.80;99.90;;;;;;4980255;28;20077;-84
2022/11/26 10:22:55;;;;;;;17.33;6.30;;;9.50;99.90;;;;;;4992018;28;20034;-85
2022/11/26 10:25:27;;;;;;;13.52;5.70;;;9.40;99.90;;;;;;4983755;28;20088;-85
2022/11/26 10:27:55;;;;;;;17.63;6.18;;;9.30;99.90;;;;;;4980316;28;20042;-84
2022/11/26 10:30:27;;;;;;;21.75;6.60;;;9.20;99.90;;;;;;4965552;28;20043;-83
2022/11/26 10:32:54;;;;;;;17.88;6.60;;;9.10;99.90;;;;;;4977767;28;20078;-80
2022/11/26 10:35:26;;;;;;;17.65;6.28;;;9.00;99.90;;;;;;4991005;28;20078;-84
2022/11/26 10:37:56;;;;;;;18.70;6.90;;;8.90;99.90;;;;;;4981167;28;20038;-84
2022/11/26 10:40:27;;;;;;;21.48;6.93;;;8.80;99.90;;;;;;4979494;28;20050;-85
2022/11/26 10:42:56;;;;;;;16.95;7.25;;;8.80;99.90;;;;;;4990439;28;20041;-85
2022/11/26 10:45:24;;;;;;;24.13;6.95;;;8.80;99.90;;;;;;4991307;28;20498;-85
2022/11/26 10:47:50;;;;;;;24.75;8.23;;;8.90;99.90;;;;;;4967299;28;20065;-85
2022/11/26 10:50:24;;;;;;;24.50;7.95;;;8.70;99.90;;;;;;4983652;28;20039;-84
2022/11/26 10:52:53;;;;;;;21.40;8.50;;;8.70;99.90;;;;;;4983692;28;20486;-85
2022/11/26 10:55:25;;;;;;;20.30;8.13;;;8.70;99.90;;;;;;4987502;28;20065;-84
2022/11/26 10:57:55;;;;;;;20.70;8.15;;;8.70;99.90;;;;;;4991085;28;20491;-84
2022/11/26 11:00:37;;;;;;;20.45;7.60;;;8.80;99.90;;;;;;4980845;28;20121;-83
2022/11/26 11:03:13;;;;;;;25.98;8.18;;;8.80;99.90;;;;;;4972209;28;20395;-84
2022/11/26 11:05:41;;;;;;;20.25;8.43;;;8.80;99.90;;;;;;4973161;28;20057;-85
2022/11/26 11:08:28;;;;;;;25.73;8.70;;;9.20;99.90;;;;;;4975736;28;20046;-84
2022/11/26 11:10:56;;;;;;;21.27;8.60;;;8.80;99.90;;;;;;4961002;28;20567;-85
2022/11/26 11:13:37;;;;;;;22.02;8.18;;;8.70;99.90;;;;;;4969271;28;20038;-84
2022/11/26 11:16:03;;;;;;;22.50;7.93;;;8.80;99.90;;;;;;4966931;28;20034;-84
2022/11/26 11:18:29;;;;;;;17.10;7.38;;;8.80;99.90;;;;;;4990178;28;20521;-83
2022/11/26 11:20:56;;;;;;;;;;;8.80;99.90;;;;;;4971690;28;20093;-83
2022/11/26 11:23:25;;;;;;;22.30;8.50;;;8.80;99.90;;;;;;4966371;28;20366;-84
2022/11/26 11:26:14;;;;;;;28.08;9.13;;;8.80;99.90;;;;;;4992013;28;20039;-83
2022/11/26 11:28:46;;;;;;;24.48;9.05;;;8.80;99.90;;;;;;4978072;28;20035;-84
2022/11/26 11:31:15;;;;;;;19.85;8.68;;;8.80;99.90;;;;;;4976749;28;20069;-84
2022/11/26 11:33:42;;;;;;;25.98;9.65;;;8.80;99.90;;;;;;4994933;28;20042;-84
2022/11/26 11:36:12;;;;;;;;;;;8.80;99.90;;;;;;4976942;28;20117;-84
2022/11/26 11:39:04;;;;;;;25.27;9.32;;;8.80;99.90;;;;;;4995156;28;19968;-84
2022/11/26 11:41:40;;;;;;;20.58;8.45;;;8.80;99.90;;;;;;4992449;28;20406;-83
2022/11/26 11:44:15;;;;;;;25.75;8.95;;;8.80;99.90;;;;;;4985059;28;20554;-85
2022/11/26 11:46:50;;;;;;;21.73;8.75;;;8.90;99.90;;;;;;4990133;28;20042;-85
2022/11/26 11:49:19;;;;;;;22.05;8.82;;;8.90;99.90;;;;;;4995085;28;20042;-84
2022/11/26 11:52:12;;;;;;;18.73;8.10;;;8.90;99.90;;;;;;4973831;28;20054;-85
2022/11/26 11:54:51;;;;;;;16.88;7.93;;;8.90;99.90;;;;;;4987312;28;20046;-85
2022/11/26 11:57:41;;;;;;;20.02;8.23;;;9.00;99.90;;;;;;4979358;28;20537;-84
2022/11/26 12:00:17;;;;;;;19.05;8.35;;;8.90;99.90;;;;;;5008800;28;20042;-83
2022/11/26 12:03:28;;;;;;;22.80;8.55;;;9.00;99.90;;;;;;5010446;28;20137;-84
2022/11/26 12:06:12;;;;;;;19.58;8.88;;;8.90;99.90;;;;;;5007125;28;20574;-85
2022/11/26 12:09:04;;;;;;;21.95;8.27;;;8.90;99.90;;;;;;4997393;28;20061;-85
2022/11/26 12:11:48;;;;;;;24.15;7.60;;;8.90;99.90;;;;;;4978911;28;20038;-84
2022/11/26 12:15:00;;;;;;;22.02;8.40;;;8.90;99.90;;;;;;4978880;28;20495;-84
2022/11/26 12:17:38;;;;;;;25.52;9.52;;;8.90;99.90;;;;;;4986255;28;20046;-84
2022/11/26 12:20:11;;;;;;;23.55;8.52;;;8.90;99.90;;;;;;4988373;28;20031;-84
2022/11/26 12:22:44;;;;;;;19.98;8.38;;;8.90;99.90;;;;;;4975718;28;20046;-84
2022/11/26 12:25:27;;;;;;;25.58;9.02;;;8.90;99.90;;;;;;5008307;28;20060;-84
2022/11/26 12:28:22;;;;;;;24.63;8.77;;;8.90;99.90;;;;;;4994712;28;20038;-83
2022/11/26 12:31:02;;;;;;;19.20;9.00;;;9.00;99.90;;;;;;4966449;28;20044;-84
2022/11/26 12:33:41;;;;;;;21.33;8.52;;;8.90;99.90;;;;;;4989200;28;20132;-85
2022/11/26 12:36:35;;;;;;;29.55;10.25;;;9.00;99.90;;;;;;4977464;28;20542;-85
2022/11/26 12:39:03;;;;;;;24.25;8.75;;;9.00;99.90;;;;;;4983257;28;20410;-84
2022/11/26 12:41:54;;;;;;;25.23;9.18;;;8.90;99.90;;;;;;4983877;28;20038;-84
2022/11/26 12:44:36;;;;;;;24.60;9.32;;;9.00;99.90;;;;;;4969550;28;20510;-84
2022/11/26 12:47:11;;;;;;;21.90;9.40;;;9.00;99.90;;;;;;4980977;28;20415;-85
2022/11/26 12:50:01;;;;;;;19.83;8.65;;;9.00;99.90;;;;;;4976521;28;20121;-84
2022/11/26 12:52:36;;;;;;;21.15;8.25;;;9.10;99.90;;;;;;4984256;28;20038;-84
2022/11/26 12:55:27;;;;;;;26.83;9.88;;;9.00;99.90;;;;;;4975794;28;20042;-85
2022/11/26 12:57:59;;;;;;;23.63;9.30;;;9.00;99.90;;;;;;4967182;28;20462;-84
2022/11/26 13:00:35;;;;;;;23.15;9.95;;;9.00;99.90;;;;;;4986725;28;20462;-84
2022/11/26 13:03:02;;;;;;;20.40;8.98;;;9.00;99.90;;;;;;4967108;28;20415;-84